Etusivu
METAR-TAF:

METAR-TAF

Lentoasemat :

Hohn, Saksa

Leveyspiiri: 54-19N, Pituuspiiri: 009-32E, korkeus merenpinnasta: 12 m

Tämänhetkinen sää

Tämä raportti tehtiin 1 tunti ja 15 minuuttia sitten, kello 12.20 UTC
Tuuli 11 kn lounaasta puuskistuen 24 kn:hen
Lämpötila 15°C
Kosteus 77%
Ilmanpaine 1000 hPa

METAR: ETNH 151220Z AUTO 22011G24KT //// // ////// 15/11 Q1000 ///

Aika: 15:35 (13:35 UTC)

Sääennuste

Tämä raportti tehtiin 27 tuntia ja 23 minuuttia sitten, kello 10.12 UTC
Ennuste voimassa 14. päivästä klo 11 UTC - 14. päivään klo 20 UTC
Tuuli 10 kn etelästä/kaakosta
Näkyvyys 10 km tai enemmän
Hajonneita pilviä 8000 ft:n korkeudessa
Ajoittain
14. päivästä klo 11 UTC - 14. päivään klo 20 UTC
Tuuli 10 kn idästä/kaakosta
Näkyvyys: 8000 m
Hajonneita pilviä 3000 ft:n korkeudessa
heikkoa sadetta,

TAF: ETNH 141012Z 1411/1420 15010KT 9999 NSW BKN080 TEMPO 1411/1420 12010KT 8000 -RA BKN030

Säähavainnot ja -ennusteet yli 4000 lentoasemalta (METAR- ja TAF-raportit).

Käytössä olevat sääasemat on merkitty karttaan keltaisilla ja punaisilla pisteillä.

Aseta hiiri pisteen päälle nähdäksesi sääaseman nimen.

Klikkaa sitten nähdäksesi säähavainnot ja -ennusteet.

Kartan vaihtaminen: klikkaa mustalla rastilla varustettuja vihreitä pisteitä, niin voit zoomata sisään; viivalla varustettua vihreää pistettä, niin voit zoomata ulos tai vihreitä nuolia, niin pääset viereisille kartoille.


METAR-TAF: